Wetterdaten: Woche 08.10.18 - 14.10.18 (KW41)
Datum Zeit Temp. Aussen Temp. o. S. +5cm Feuchte Auss Luftdruck Regen Sonnenschein Regendauer Solar Windben Empfang
08.10.2018 00:00 7,0 C 5,9 C 5,7 C 86 % 1019,7 hPa 0,0 l/m 0,00 h 0,00 h 0 W/m 0,0 km/h (0 Bft) 97,59 %
08.10.2018 01:00 6,3 C 5,3 C 5,4 C 88 % 1019,7 hPa 0,0 l/m 0,00 h 0,00 h 0 W/m 0,0 km/h (0 Bft) 97,45 %
08.10.2018 02:00 5,8 C 4,7 C 4,9 C 89 % 1019,8 hPa 0,0 l/m 0,00 h 0,00 h 0 W/m 0,0 km/h (0 Bft) 98,84 %
08.10.2018 03:00 5,2 C 4,3 C 4,4 C 90 % 1019,5 hPa 0,0 l/m 0,00 h 0,00 h 0 W/m 0,2 km/h (0 Bft) 96,14 %
08.10.2018 04:00 4,7 C 3,7 C 3,9 C 91 % 1019,5 hPa 0,0 l/m 0,00 h 0,00 h 0 W/m 0,1 km/h (0 Bft) 96,40 %
08.10.2018 05:00 4,2 C 3,4 C 3,7 C 92 % 1019,4 hPa 0,0 l/m 0,00 h 0,00 h 0 W/m 0,0 km/h (0 Bft) 98,39 %
08.10.2018 06:00 3,8 C 3,1 C 3,3 C 92 % 1019,4 hPa 0,0 l/m 0,00 h 0,00 h 0 W/m 0,0 km/h (0 Bft) 99,26 %
08.10.2018 07:00 3,6 C 2,9 C 2,9 C 93 % 1019,5 hPa 0,0 l/m 0,00 h 0,00 h 7 W/m 0,0 km/h (0 Bft) 96,74 %
08.10.2018 08:00 3,4 C 3,8 C 3,6 C 94 % 1019,8 hPa 0,0 l/m 0,00 h 0,00 h 33 W/m 0,8 km/h (0 Bft) 97,40 %
08.10.2018 09:00 5,2 C 6,8 C 5,5 C 96 % 1020,3 hPa 0,0 l/m 0,00 h 0,00 h 70 W/m 3,0 km/h (1 Bft) 96,80 %
08.10.2018 10:00 7,9 C 15,7 C 7,4 C 97 % 1020,8 hPa 0,0 l/m 0,27 h 0,00 h 135 W/m 4,6 km/h (1 Bft) 98,94 %
08.10.2018 11:00 12,3 C 21,1 C 9,7 C 87 % 1020,9 hPa 0,0 l/m 0,23 h 0,00 h 186 W/m 6,4 km/h (2 Bft) 97,79 %
08.10.2018 12:00 15,1 C 18,5 C 11,4 C 69 % 1021,1 hPa 0,0 l/m 0,03 h 0,00 h 168 W/m 6,2 km/h (2 Bft) 99,42 %
08.10.2018 13:00 15,4 C 15,9 C 12,8 C 66 % 1020,7 hPa 0,0 l/m 1,00 h 0,00 h 442 W/m 6,4 km/h (2 Bft) 97,69 %
08.10.2018 14:00 16,1 C 16,6 C 13,6 C 64 % 1020,2 hPa 0,0 l/m 0,73 h 0,00 h 315 W/m 6,2 km/h (2 Bft) 95,35 %
08.10.2018 15:00 16,2 C 16,2 C 13,9 C 63 % 1019,8 hPa 0,0 l/m 1,00 h 0,00 h 339 W/m 5,5 km/h (1 Bft) 99,70 %
08.10.2018 16:00 16,5 C 17,4 C 14,3 C 62 % 1019,4 hPa 0,0 l/m 1,00 h 0,00 h 331 W/m 5,7 km/h (1 Bft) 96,27 %
08.10.2018 17:00 16,5 C 16,1 C 13,7 C 62 % 1019,1 hPa 0,0 l/m 0,33 h 0,00 h 120 W/m 4,2 km/h (1 Bft) 97,64 %
08.10.2018 18:00 15,6 C 13,6 C 11,8 C 67 % 1018,8 hPa 0,0 l/m 0,40 h 0,00 h 31 W/m 1,7 km/h (1 Bft) 98,97 %
08.10.2018 19:00 13,3 C 11,0 C 10,0 C 72 % 1019,3 hPa 0,0 l/m 0,00 h 0,00 h 1 W/m 0,0 km/h (0 Bft) 94,44 %
08.10.2018 20:00 11,4 C 9,9 C 9,1 C 79 % 1019,4 hPa 0,0 l/m 0,00 h 0,00 h 0 W/m 0,2 km/h (0 Bft) 98,90 %
08.10.2018 21:00 10,2 C 8,7 C 8,3 C 82 % 1019,4 hPa 0,0 l/m 0,00 h 0,00 h 0 W/m 0,2 km/h (0 Bft) 97,71 %
08.10.2018 22:00 9,1 C 7,6 C 7,4 C 84 % 1019,9 hPa 0,0 l/m 0,00 h 0,00 h 0 W/m 0,0 km/h (0 Bft) 97,59 %
08.10.2018 23:00 8,2 C 7,2 C 7,0 C 87 % 1020,2 hPa 0,0 l/m 0,00 h 0,00 h 0 W/m 0,0 km/h (0 Bft) 97,60 %
09.10.2018 00:00 7,7 C 6,9 C 6,5 C 89 % 1020,3 hPa 0,0 l/m 0,00 h 0,00 h 0 W/m 0,6 km/h (0 Bft) 97,08 %
09.10.2018 01:00 7,2 C 6,1 C 6,0 C 90 % 1019,9 hPa 0,0 l/m 0,00 h 0,00 h 0 W/m 0,1 km/h (0 Bft) 96,48 %
09.10.2018 02:00 6,9 C 6,6 C 6,2 C 92 % 1019,5 hPa 0,0 l/m 0,00 h 0,00 h 0 W/m 2,3 km/h (1 Bft) 98,90 %
09.10.2018 03:00 6,7 C 5,7 C 5,6 C 93 % 1019,5 hPa 0,0 l/m 0,00 h 0,00 h 0 W/m 0,0 km/h (0 Bft) 98,78 %
09.10.2018 04:00 6,3 C 5,9 C 5,6 C 93 % 1019,3 hPa 0,0 l/m 0,00 h 0,00 h 0 W/m 1,9 km/h (1 Bft) 95,25 %
09.10.2018 05:00 6,4 C 5,8 C 5,9 C 94 % 1018,9 hPa 0,0 l/m 0,00 h 0,00 h 0 W/m 2,3 km/h (1 Bft) 97,81 %
09.10.2018 06:00 5,8 C 4,5 C 4,6 C 94 % 1018,8 hPa 0,0 l/m 0,00 h 0,00 h 0 W/m 0,0 km/h (0 Bft) 99,12 %
09.10.2018 07:00 5,1 C 4,3 C 4,4 C 94 % 1019,0 hPa 0,0 l/m 0,00 h 0,00 h 6 W/m 0,0 km/h (0 Bft) 95,96 %
09.10.2018 08:00 4,9 C 5,1 C 4,7 C 94 % 1019,6 hPa 0,0 l/m 0,00 h 0,00 h 34 W/m 0,1 km/h (0 Bft) 98,51 %
09.10.2018 09:00 6,6 C 8,1 C 6,9 C 96 % 1020,0 hPa 0,0 l/m 0,00 h 0,00 h 70 W/m 0,7 km/h (0 Bft) 95,60 %
09.10.2018 10:00 9,2 C 15,2 C 8,8 C 98 % 1020,6 hPa 0,0 l/m 0,30 h 0,00 h 149 W/m 4,4 km/h (1 Bft) 98,78 %
09.10.2018 11:00 12,3 C 17,4 C 10,3 C 95 % 1020,5 hPa 0,0 l/m 0,00 h 0,00 h 126 W/m 8,1 km/h (2 Bft) 97,37 %
09.10.2018 12:00 15,5 C 20,3 C 12,1 C 81 % 1020,3 hPa 0,0 l/m 0,00 h 0,00 h 175 W/m 7,4 km/h (2 Bft) 98,93 %
09.10.2018 13:00 16,0 C 16,0 C 12,5 C 77 % 1020,0 hPa 0,0 l/m 0,70 h 0,00 h 356 W/m 7,1 km/h (2 Bft) 98,25 %
09.10.2018 14:00 16,9 C 17,9 C 14,2 C 76 % 1019,3 hPa 0,0 l/m 0,60 h 0,00 h 330 W/m 8,5 km/h (2 Bft) 95,39 %
09.10.2018 15:00 18,5 C 18,9 C 15,4 C 72 % 1019,0 hPa 0,0 l/m 1,00 h 0,00 h 394 W/m 7,1 km/h (2 Bft) 98,99 %
09.10.2018 16:00 19,4 C 20,6 C 15,6 C 70 % 1018,7 hPa 0,0 l/m 1,00 h 0,00 h 324 W/m 6,4 km/h (2 Bft) 97,10 %
09.10.2018 17:00 19,8 C 18,8 C 15,1 C 69 % 1018,6 hPa 0,0 l/m 0,30 h 0,00 h 103 W/m 4,4 km/h (1 Bft) 97,26 %
09.10.2018 18:00 18,4 C 16,1 C 13,6 C 76 % 1018,6 hPa 0,0 l/m 0,63 h 0,00 h 32 W/m 0,2 km/h (0 Bft) 98,68 %
09.10.2018 19:00 16,0 C 13,8 C 12,2 C 81 % 1018,6 hPa 0,0 l/m 0,00 h 0,00 h 6 W/m 0,0 km/h (0 Bft) 96,94 %
09.10.2018 20:00 14,3 C 12,6 C 11,4 C 85 % 1018,8 hPa 0,0 l/m 0,00 h 0,00 h 0 W/m 0,0 km/h (0 Bft) 97,14 %
09.10.2018 21:00 13,0 C 11,4 C 10,7 C 88 % 1018,8 hPa 0,0 l/m 0,00 h 0,00 h 0 W/m 0,0 km/h (0 Bft) 97,65 %
09.10.2018 22:00 11,9 C 10,5 C 10,0 C 89 % 1018,9 hPa 0,0 l/m 0,00 h 0,00 h 0 W/m 0,0 km/h (0 Bft) 97,80 %
09.10.2018 23:00 11,1 C 9,9 C 9,4 C 91 % 1018,9 hPa 0,0 l/m 0,00 h 0,00 h 0 W/m 0,0 km/h (0 Bft) 97,94 %
10.10.2018 00:00 10,8 C 10,4 C 9,5 C 93 % 1018,7 hPa 0,0 l/m 0,00 h 0,00 h 0 W/m 0,8 km/h (0 Bft) 97,89 %
10.10.2018 01:00 11,7 C 11,7 C 10,3 C 96 % 1018,6 hPa 0,0 l/m 0,00 h 0,00 h 0 W/m 3,8 km/h (1 Bft) 95,33 %
10.10.2018 02:00 11,8 C 11,0 C 10,3 C 96 % 1018,5 hPa 0,0 l/m 0,00 h 0,00 h 0 W/m 2,1 km/h (1 Bft) 99,78 %
10.10.2018 03:00 11,5 C 10,7 C 10,0 C 96 % 1018,2 hPa 0,0 l/m 0,00 h 0,00 h 0 W/m 3,2 km/h (1 Bft) 97,71 %
10.10.2018 04:00 11,1 C 10,1 C 9,5 C 96 % 1018,0 hPa 0,0 l/m 0,00 h 0,00 h 0 W/m 0,8 km/h (0 Bft) 95,62 %
10.10.2018 05:00 10,0 C 8,4 C 8,3 C 96 % 1017,9 hPa 0,0 l/m 0,00 h 0,00 h 0 W/m 0,1 km/h (0 Bft) 97,36 %
10.10.2018 06:00 8,8 C 7,6 C 7,4 C 95 % 1017,7 hPa 0,0 l/m 0,00 h 0,00 h 0 W/m 0,0 km/h (0 Bft) 97,30 %
10.10.2018 07:00 8,1 C 7,2 C 7,0 C 95 % 1017,5 hPa 0,0 l/m 0,00 h 0,00 h 6 W/m 0,0 km/h (0 Bft) 98,36 %
10.10.2018 08:00 7,7 C 7,2 C 7,0 C 95 % 1017,5 hPa 0,0 l/m 0,00 h 0,00 h 20 W/m 0,1 km/h (0 Bft) 96,37 %
10.10.2018 09:00 8,6 C 9,7 C 8,5 C 97 % 1017,5 hPa 0,0 l/m 0,07 h 0,00 h 55 W/m 0,9 km/h (0 Bft) 97,18 %
10.10.2018 10:00 12,5 C 19,8 C 10,8 C 99 % 1017,3 hPa 0,0 l/m 0,30 h 0,00 h 126 W/m 2,8 km/h (1 Bft) 99,44 %
10.10.2018 11:00 16,5 C 27,0 C 13,1 C 98 % 1016,7 hPa 0,0 l/m 0,13 h 0,00 h 109 W/m 5,8 km/h (2 Bft) 97,00 %
10.10.2018 12:00 21,0 C 27,0 C 15,0 C 74 % 1015,7 hPa 0,0 l/m 0,00 h 0,00 h 88 W/m 9,6 km/h (2 Bft) 99,12 %
10.10.2018 13:00 22,0 C 21,9 C 16,7 C 67 % 1014,8 hPa 0,0 l/m 1,00 h 0,00 h 489 W/m 10,5 km/h (2 Bft) 95,91 %
10.10.2018 14:00 22,6 C 22,9 C 17,5 C 61 % 1013,6 hPa 0,0 l/m 0,57 h 0,00 h 299 W/m 12,9 km/h (3 Bft) 97,14 %
10.10.2018 15:00 23,5 C 23,7 C 18,2 C 57 % 1012,6 hPa 0,0 l/m 1,00 h 0,00 h 428 W/m 10,6 km/h (2 Bft) 99,22 %
10.10.2018 16:00 24,3 C 25,1 C 18,4 C 53 % 1011,8 hPa 0,0 l/m 1,00 h 0,00 h 336 W/m 10,5 km/h (2 Bft) 95,95 %
10.10.2018 17:00 24,3 C 23,2 C 18,0 C 50 % 1011,2 hPa 0,0 l/m 0,23 h 0,00 h 63 W/m 11,5 km/h (2 Bft) 98,27 %
10.10.2018 18:00 22,6 C 20,7 C 17,0 C 54 % 1010,8 hPa 0,0 l/m 0,00 h 0,00 h 15 W/m 9,2 km/h (2 Bft) 99,01 %
10.10.2018 19:00 20,8 C 19,1 C 16,2 C 62 % 1011,0 hPa 0,0 l/m 0,00 h 0,00 h 0 W/m 7,0 km/h (2 Bft) 95,82 %
10.10.2018 20:00 18,5 C 15,8 C 14,3 C 70 % 1010,9 hPa 0,0 l/m 0,00 h 0,00 h 0 W/m 2,9 km/h (1 Bft) 97,51 %
10.10.2018 21:00 16,4 C 14,4 C 13,5 C 77 % 1010,9 hPa 0,0 l/m 0,00 h 0,00 h 0 W/m 1,7 km/h (1 Bft) 97,76 %
10.10.2018 22:00 15,3 C 14,8 C 13,3 C 84 % 1010,7 hPa 0,0 l/m 0,00 h 0,00 h 0 W/m 3,1 km/h (1 Bft) 97,59 %
10.10.2018 23:00 15,5 C 15,3 C 13,7 C 86 % 1010,2 hPa 0,0 l/m 0,00 h 0,00 h 0 W/m 4,9 km/h (1 Bft) 99,05 %
11.10.2018 00:00 15,3 C 14,2 C 13,0 C 85 % 1010,2 hPa 0,0 l/m 0,00 h 0,00 h 0 W/m 3,4 km/h (1 Bft) 94,96 %
11.10.2018 01:00 15,0 C 14,4 C 12,9 C 86 % 1010,0 hPa 0,0 l/m 0,00 h 0,00 h 0 W/m 5,3 km/h (1 Bft) 98,58 %
11.10.2018 02:00 14,7 C 14,0 C 12,8 C 85 % 1010,1 hPa 0,0 l/m 0,00 h 0,00 h 0 W/m 5,8 km/h (2 Bft) 98,98 %
11.10.2018 03:00 14,5 C 13,9 C 12,8 C 86 % 1009,8 hPa 0,0 l/m 0,00 h 0,00 h 0 W/m 5,4 km/h (1 Bft) 95,45 %
11.10.2018 04:00 14,2 C 13,6 C 12,5 C 86 % 1009,5 hPa 0,0 l/m 0,00 h 0,00 h 0 W/m 6,7 km/h (2 Bft) 98,00 %
11.10.2018 05:00 14,0 C 13,3 C 12,3 C 86 % 1009,5 hPa 0,0 l/m 0,00 h 0,00 h 0 W/m 8,9 km/h (2 Bft) 97,76 %
11.10.2018 06:00 13,8 C 13,0 C 12,2 C 86 % 1009,5 hPa 0,0 l/m 0,00 h 0,00 h 0 W/m 6,9 km/h (2 Bft) 96,92 %
11.10.2018 07:00 13,5 C 13,0 C 12,2 C 88 % 1009,6 hPa 0,0 l/m 0,00 h 0,00 h 7 W/m 9,7 km/h (2 Bft) 97,13 %
11.10.2018 08:00 13,7 C 13,5 C 12,3 C 88 % 1010,3 hPa 0,0 l/m 0,00 h 0,00 h 21 W/m 13,1 km/h (3 Bft) 96,08 %
11.10.2018 09:00 14,4 C 14,7 C 13,0 C 87 % 1010,9 hPa 0,0 l/m 0,00 h 0,00 h 51 W/m 17,5 km/h (3 Bft) 98,44 %
11.10.2018 10:00 16,5 C 20,2 C 14,2 C 83 % 1011,0 hPa 0,0 l/m 0,17 h 0,00 h 134 W/m 15,6 km/h (3 Bft) 98,45 %
11.10.2018 11:00 19,2 C 24,1 C 15,7 C 75 % 1011,0 hPa 0,0 l/m 0,00 h 0,00 h 139 W/m 13,1 km/h (3 Bft) 95,92 %
11.10.2018 12:00 21,4 C 23,3 C 17,0 C 69 % 1010,7 hPa 0,0 l/m 0,00 h 0,00 h 190 W/m 13,6 km/h (3 Bft) 97,89 %
11.10.2018 13:00 21,4 C 21,5 C 17,8 C 68 % 1010,2 hPa 0,0 l/m 0,30 h 0,00 h 234 W/m 13,0 km/h (3 Bft) 97,03 %
11.10.2018 14:00 21,3 C 21,1 C 18,2 C 69 % 1010,0 hPa 0,0 l/m 0,00 h 0,00 h 153 W/m 15,5 km/h (3 Bft) 98,53 %
11.10.2018 15:00 21,5 C 21,3 C 18,5 C 68 % 1010,0 hPa 0,0 l/m 0,27 h 0,00 h 172 W/m 17,2 km/h (3 Bft) 97,63 %
11.10.2018 16:00 22,6 C 22,8 C 19,4 C 65 % 1009,7 hPa 0,0 l/m 0,77 h 0,00 h 268 W/m 19,9 km/h (4 Bft) 96,64 %
11.10.2018 17:00 22,1 C 21,3 C 18,8 C 67 % 1009,5 hPa 0,0 l/m 0,33 h 0,00 h 76 W/m 16,2 km/h (3 Bft) 98,79 %
11.10.2018 18:00 21,7 C 20,5 C 18,3 C 68 % 1009,9 hPa 0,0 l/m 0,47 h 0,00 h 32 W/m 13,7 km/h (3 Bft) 96,95 %
11.10.2018 19:00 20,2 C 18,5 C 16,8 C 71 % 1010,5 hPa 0,0 l/m 0,00 h 0,00 h 0 W/m 8,5 km/h (2 Bft) 97,94 %
11.10.2018 20:00 18,9 C 17,8 C 16,1 C 76 % 1010,9 hPa 0,0 l/m 0,00 h 0,00 h 0 W/m 10,3 km/h (2 Bft) 97,87 %
11.10.2018 21:00 18,1 C 17,2 C 15,8 C 78 % 1011,0 hPa 0,0 l/m 0,00 h 0,00 h 0 W/m 10,9 km/h (2 Bft) 96,41 %
11.10.2018 22:00 17,7 C 16,7 C 15,5 C 80 % 1011,2 hPa 0,0 l/m 0,00 h 0,00 h 0 W/m 11,6 km/h (2 Bft) 99,20 %
11.10.2018 23:00 17,1 C 16,2 C 15,0 C 81 % 1011,2 hPa 0,0 l/m 0,00 h 0,00 h 0 W/m 12,3 km/h (3 Bft) 97,77 %
12.10.2018 00:00 16,6 C 15,8 C 14,8 C 83 % 1011,3 hPa 0,0 l/m 0,00 h 0,00 h 0 W/m 13,5 km/h (3 Bft) 95,00 %
12.10.2018 01:00 16,1 C 15,2 C 14,4 C 84 % 1012,0 hPa 0,0 l/m 0,00 h 0,00 h 0 W/m 12,7 km/h (3 Bft) 99,47 %
12.10.2018 02:00 15,7 C 14,9 C 14,2 C 85 % 1012,4 hPa 0,0 l/m 0,00 h 0,00 h 0 W/m 11,2 km/h (2 Bft) 98,56 %
12.10.2018 03:00 15,5 C 14,7 C 13,9 C 85 % 1012,6 hPa 0,0 l/m 0,00 h 0,00 h 0 W/m 12,2 km/h (2 Bft) 94,15 %
12.10.2018 04:00 15,1 C 14,2 C 13,5 C 86 % 1013,1 hPa 0,0 l/m 0,00 h 0,00 h 0 W/m 10,4 km/h (2 Bft) 99,47 %
12.10.2018 05:00 14,8 C 14,2 C 13,4 C 88 % 1013,7 hPa 0,0 l/m 0,00 h 0,00 h 0 W/m 7,1 km/h (2 Bft) 97,47 %
12.10.2018 06:00 14,6 C 13,7 C 13,1 C 88 % 1014,4 hPa 0,0 l/m 0,00 h 0,00 h 0 W/m 5,8 km/h (2 Bft) 96,68 %
12.10.2018 07:00 14,1 C 13,0 C 12,8 C 89 % 1015,2 hPa 0,0 l/m 0,00 h 0,00 h 5 W/m 6,8 km/h (2 Bft) 97,91 %
12.10.2018 08:00 13,9 C 13,7 C 12,8 C 91 % 1016,0 hPa 0,0 l/m 0,00 h 0,00 h 20 W/m 7,4 km/h (2 Bft) 97,01 %
12.10.2018 09:00 14,8 C 15,9 C 13,8 C 91 % 1016,9 hPa 0,0 l/m 0,03 h 0,00 h 66 W/m 12,7 km/h (3 Bft) 98,62 %
12.10.2018 10:00 18,0 C 23,4 C 15,8 C 83 % 1017,4 hPa 0,0 l/m 0,27 h 0,00 h 143 W/m 14,3 km/h (3 Bft) 97,59 %
12.10.2018 11:00 21,3 C 26,4 C 17,3 C 73 % 1017,5 hPa 0,0 l/m 0,03 h 0,00 h 128 W/m 17,6 km/h (3 Bft) 97,99 %
12.10.2018 12:00 23,0 C 26,8 C 19,1 C 69 % 1017,3 hPa 0,0 l/m 0,10 h 0,00 h 102 W/m 15,1 km/h (3 Bft) 97,60 %
12.10.2018 13:00 23,7 C 23,7 C 20,1 C 67 % 1017,2 hPa 0,0 l/m 0,90 h 0,00 h 385 W/m 16,1 km/h (3 Bft) 94,17 %
12.10.2018 14:00 24,2 C 24,2 C 20,6 C 65 % 1016,9 hPa 0,0 l/m 0,17 h 0,00 h 203 W/m 12,4 km/h (3 Bft) 99,31 %
12.10.2018 15:00 25,3 C 25,5 C 22,8 C 60 % 1016,9 hPa 0,0 l/m 1,00 h 0,00 h 364 W/m 14,8 km/h (3 Bft) 97,96 %
12.10.2018 16:00 25,7 C 25,5 C 22,8 C 60 % 1017,0 hPa 0,0 l/m 1,00 h 0,00 h 249 W/m 12,3 km/h (3 Bft) 96,19 %
12.10.2018 17:00 25,3 C 24,5 C 21,9 C 60 % 1017,0 hPa 0,0 l/m 0,17 h 0,00 h 72 W/m 9,9 km/h (2 Bft) 99,58 %
12.10.2018 18:00 24,2 C 22,6 C 19,8 C 62 % 1017,1 hPa 0,0 l/m 0,00 h 0,00 h 18 W/m 7,2 km/h (2 Bft) 97,30 %
12.10.2018 19:00 22,6 C 21,0 C 18,7 C 67 % 1017,6 hPa 0,0 l/m 0,00 h 0,00 h 0 W/m 9,1 km/h (2 Bft) 96,90 %
12.10.2018 20:00 21,3 C 19,8 C 17,8 C 71 % 1018,0 hPa 0,0 l/m 0,00 h 0,00 h 0 W/m 7,5 km/h (2 Bft) 98,40 %
12.10.2018 21:00 20,5 C 19,6 C 17,8 C 74 % 1018,3 hPa 0,0 l/m 0,00 h 0,00 h 0 W/m 8,5 km/h (2 Bft) 96,09 %
12.10.2018 22:00 20,1 C 18,8 C 17,0 C 75 % 1018,5 hPa 0,0 l/m 0,00 h 0,00 h 0 W/m 6,2 km/h (2 Bft) 98,45 %
12.10.2018 23:00 19,2 C 17,7 C 16,4 C 78 % 1018,6 hPa 0,0 l/m 0,00 h 0,00 h 0 W/m 6,9 km/h (2 Bft) 96,94 %
13.10.2018 00:00 18,2 C 17,2 C 16,1 C 81 % 1018,4 hPa 0,0 l/m 0,00 h 0,00 h 0 W/m 11,3 km/h (2 Bft) 96,49 %
13.10.2018 01:00 17,9 C 17,2 C 16,1 C 82 % 1018,1 hPa 0,0 l/m 0,00 h 0,00 h 0 W/m 9,9 km/h (2 Bft) 99,21 %
13.10.2018 02:00 17,9 C 17,2 C 16,1 C 82 % 1018,1 hPa 0,0 l/m 0,00 h 0,00 h 0 W/m 12,4 km/h (3 Bft) 97,24 %
13.10.2018 03:00 17,6 C 16,4 C 15,7 C 83 % 1018,3 hPa 0,0 l/m 0,00 h 0,00 h 0 W/m 11,3 km/h (2 Bft) 95,73 %
13.10.2018 04:00 17,0 C 16,1 C 15,5 C 85 % 1018,3 hPa 0,0 l/m 0,00 h 0,00 h 0 W/m 10,3 km/h (2 Bft) 99,48 %
13.10.2018 05:00 16,8 C 16,1 C 15,0 C 85 % 1018,5 hPa 0,0 l/m 0,00 h 0,00 h 0 W/m 10,0 km/h (2 Bft) 97,55 %
13.10.2018 06:00 16,7 C 16,1 C 15,0 C 85 % 1018,3 hPa 0,0 l/m 0,00 h 0,00 h 0 W/m 13,2 km/h (3 Bft) 95,48 %
13.10.2018 07:00 16,6 C 15,7 C 14,9 C 85 % 1017,9 hPa 0,0 l/m 0,00 h 0,00 h 5 W/m 9,9 km/h (2 Bft) 99,35 %
13.10.2018 08:00 16,2 C 15,8 C 14,6 C 86 % 1017,9 hPa 0,0 l/m 0,00 h 0,00 h 21 W/m 10,9 km/h (2 Bft) 97,41 %
13.10.2018 09:00 17,0 C 17,9 C 15,6 C 84 % 1017,8 hPa 0,0 l/m 0,00 h 0,00 h 45 W/m 14,1 km/h (3 Bft) 96,93 %
13.10.2018 10:00 19,6 C 24,6 C 16,8 C 76 % 1017,8 hPa 0,0 l/m 0,03 h 0,00 h 90 W/m 15,0 km/h (3 Bft) 96,92 %
13.10.2018 11:00 22,6 C 28,1 C 18,4 C 68 % 1017,4 hPa 0,0 l/m 0,07 h 0,00 h 102 W/m 16,3 km/h (3 Bft) 99,43 %
13.10.2018 12:00 24,5 C 28,2 C 20,1 C 63 % 1017,0 hPa 0,0 l/m 0,00 h 0,00 h 105 W/m 21,2 km/h (4 Bft) 96,82 %
13.10.2018 13:00 25,0 C 24,9 C 21,6 C 61 % 1016,3 hPa 0,0 l/m 0,93 h 0,00 h 454 W/m 19,8 km/h (3 Bft) 95,83 %
13.10.2018 14:00 26,1 C 26,1 C 22,7 C 57 % 1015,1 hPa 0,0 l/m 0,53 h 0,00 h 250 W/m 20,7 km/h (4 Bft) 99,84 %
13.10.2018 15:00 26,9 C 26,6 C 22,8 C 54 % 1014,5 hPa 0,0 l/m 1,00 h 0,00 h 400 W/m 22,7 km/h (4 Bft) 97,31 %
13.10.2018 16:00 26,9 C 26,9 C 22,6 C 53 % 1013,9 hPa 0,0 l/m 1,00 h 0,00 h 303 W/m 18,3 km/h (3 Bft) 96,02 %
13.10.2018 17:00 26,1 C 24,8 C 21,8 C 55 % 1013,3 hPa 0,0 l/m 0,10 h 0,00 h 42 W/m 13,1 km/h (3 Bft) 98,95 %
13.10.2018 18:00 24,5 C 22,8 C 20,1 C 59 % 1013,0 hPa 0,0 l/m 0,00 h 0,00 h 14 W/m 9,8 km/h (2 Bft) 97,46 %
13.10.2018 19:00 22,7 C 21,1 C 19,0 C 61 % 1013,0 hPa 0,0 l/m 0,00 h 0,00 h 0 W/m 9,1 km/h (2 Bft) 96,50 %
13.10.2018 20:00 21,4 C 20,2 C 18,3 C 63 % 1012,7 hPa 0,0 l/m 0,00 h 0,00 h 0 W/m 8,8 km/h (2 Bft) 98,17 %
13.10.2018 21:00 20,5 C 19,3 C 17,8 C 64 % 1012,6 hPa 0,0 l/m 0,00 h 0,00 h 0 W/m 11,3 km/h (2 Bft) 98,78 %
13.10.2018 22:00 19,9 C 18,9 C 17,5 C 65 % 1012,2 hPa 0,0 l/m 0,00 h 0,00 h 0 W/m 13,4 km/h (3 Bft) 96,14 %
13.10.2018 23:00 19,5 C 18,4 C 17,1 C 67 % 1012,0 hPa 0,0 l/m 0,00 h 0,00 h 0 W/m 10,9 km/h (2 Bft) 96,79 %
14.10.2018 00:00 18,6 C 17,4 C 16,4 C 69 % 1011,9 hPa 0,0 l/m 0,00 h 0,00 h 0 W/m 7,6 km/h (2 Bft) 98,98 %
14.10.2018 01:00 17,7 C 16,5 C 15,8 C 72 % 1011,4 hPa 0,0 l/m 0,00 h 0,00 h 0 W/m 7,9 km/h (2 Bft) 97,69 %
14.10.2018 02:00 16,9 C 16,0 C 15,2 C 75 % 1010,9 hPa 0,0 l/m 0,00 h 0,00 h 0 W/m 9,6 km/h (2 Bft) 95,93 %
14.10.2018 03:00 16,5 C 15,6 C 15,0 C 76 % 1010,4 hPa 0,0 l/m 0,00 h 0,00 h 0 W/m 9,3 km/h (2 Bft) 98,89 %
14.10.2018 04:00 16,0 C 15,1 C 14,6 C 78 % 1009,7 hPa 0,0 l/m 0,00 h 0,00 h 0 W/m 9,9 km/h (2 Bft) 98,32 %
14.10.2018 05:00 15,9 C 15,5 C 14,8 C 78 % 1008,9 hPa 0,0 l/m 0,00 h 0,00 h 0 W/m 13,0 km/h (3 Bft) 96,96 %
14.10.2018 06:00 16,0 C 15,3 C 14,6 C 77 % 1008,5 hPa 0,0 l/m 0,00 h 0,00 h 0 W/m 12,8 km/h (3 Bft) 96,99 %
14.10.2018 07:00 15,8 C 15,0 C 14,4 C 78 % 1008,2 hPa 0,0 l/m 0,00 h 0,00 h 6 W/m 12,8 km/h (3 Bft) 98,07 %
14.10.2018 08:00 15,6 C 15,0 C 14,4 C 78 % 1008,3 hPa 0,0 l/m 0,00 h 0,00 h 23 W/m 13,4 km/h (3 Bft) 98,33 %
14.10.2018 09:00 16,1 C 16,5 C 14,9 C 79 % 1008,5 hPa 0,0 l/m 0,00 h 0,00 h 42 W/m 18,3 km/h (3 Bft) 96,34 %
14.10.2018 10:00 18,5 C 24,0 C 16,2 C 74 % 1008,3 hPa 0,0 l/m 0,13 h 0,00 h 102 W/m 19,9 km/h (4 Bft) 96,91 %
14.10.2018 11:00 21,6 C 27,4 C 17,9 C 66 % 1008,0 hPa 0,0 l/m 0,17 h 0,00 h 148 W/m 17,1 km/h (3 Bft) 99,50 %
14.10.2018 12:00 23,5 C 26,8 C 19,4 C 60 % 1007,9 hPa 0,0 l/m 0,10 h 0,00 h 99 W/m 17,5 km/h (3 Bft) 96,56 %
14.10.2018 13:00 23,9 C 24,0 C 20,8 C 59 % 1007,5 hPa 0,0 l/m 0,97 h 0,00 h 472 W/m 17,2 km/h (3 Bft) 97,02 %
14.10.2018 14:00 25,8 C 26,0 C 23,0 C 53 % 1006,8 hPa 0,0 l/m 0,57 h 0,00 h 298 W/m 20,0 km/h (4 Bft) 99,32 %
14.10.2018 15:00 26,0 C 25,4 C 22,8 C 51 % 1006,1 hPa 0,0 l/m 1,00 h 0,00 h 400 W/m 25,2 km/h (4 Bft) 96,11 %
14.10.2018 16:00 25,7 C 25,8 C 22,3 C 54 % 1005,8 hPa 0,0 l/m 1,00 h 0,00 h 291 W/m 20,2 km/h (4 Bft) 98,18 %
14.10.2018 17:00 24,9 C 23,7 C 21,2 C 56 % 1005,9 hPa 0,0 l/m 0,07 h 0,00 h 36 W/m 15,8 km/h (3 Bft) 97,44 %
14.10.2018 18:00 23,4 C 21,9 C 19,4 C 58 % 1006,1 hPa 0,0 l/m 0,00 h 0,00 h 10 W/m 9,7 km/h (2 Bft) 97,36 %
14.10.2018 19:00 21,8 C 20,2 C 18,3 C 62 % 1006,6 hPa 0,0 l/m 0,00 h 0,00 h 0 W/m 8,9 km/h (2 Bft) 97,79 %
14.10.2018 20:00 20,6 C 19,3 C 17,6 C 64 % 1006,8 hPa 0,0 l/m 0,00 h 0,00 h 0 W/m 8,7 km/h (2 Bft) 96,83 %
14.10.2018 21:00 19,5 C 18,2 C 17,0 C 67 % 1006,9 hPa 0,0 l/m 0,00 h 0,00 h 0 W/m 7,4 km/h (2 Bft) 99,16 %
14.10.2018 22:00 18,6 C 17,5 C 16,4 C 70 % 1007,2 hPa 0,0 l/m 0,00 h 0,00 h 0 W/m 7,9 km/h (2 Bft) 96,15 %
14.10.2018 23:00 17,9 C 17,0 C 16,1 C 72 % 1007,6 hPa 0,0 l/m 0,00 h 0,00 h 0 W/m 11,1 km/h (2 Bft) 97,04 %
Min-Datum _ 08.10.18 08.10.18 08.10.18 10.10.18 14.10.18 - - - - 08.10.18 10.10.18
_ Min-Zeit 08:14 06:10 07:14 16:45 16:00 - - - - 00:00 05:15
Minimum _ 3,2 C 2,8 C 2,8 C 48 % 1005,6 hPa - - - - 0,0 km/h (0 Bft) 44,74 %
Max-Datum _ 13.10.18 13.10.18 12.10.18 10.10.18 08.10.18 08.10.18 10.10.18 08.10.18 14.10.18 14.10.18 08.10.18
_ Max-Zeit 15:48 12:16 15:18 10:22 12:18 00:00 16:45 00:00 13:54 15:30 00:00
Maximum _ 27,0 C 31,1 C 23,3 C 99 % 1021,2 hPa 0,0 l/m 0,08 h 0,00 h 548 W/m 38,6 km/h
SO (5 Bft)
100,00 %
Durchschnitt _ 16,4 C 16,4 C 13,9 C 77 % 1014,9 hPa #0,0 l/m #27:28 h #0 min. 155 W/m 8,4 km/h (2 Bft) 97,54 %
© 2018 W. Hausmann